createdAt,value
2022-10-11T00:00:13.653Z,11.00
2022-10-11T00:02:40.806Z,6.78
2022-10-11T00:05:08.662Z,5.15
2022-10-11T00:07:38.283Z,6.47
2022-10-11T00:10:07.359Z,6.40
2022-10-11T00:12:35.340Z,6.65
2022-10-11T00:15:04.409Z,5.40
2022-10-11T00:17:32.381Z,6.45
2022-10-11T00:19:59.719Z,6.47
2022-10-11T00:22:26.935Z,6.10
2022-10-11T00:24:54.128Z,6.85
2022-10-11T00:27:21.256Z,7.90
2022-10-11T00:29:48.359Z,11.15
2022-10-11T00:32:15.486Z,7.45
2022-10-11T00:34:42.633Z,8.15
2022-10-11T00:37:09.761Z,8.68
2022-10-11T00:39:36.881Z,4.60
2022-10-11T00:42:04.653Z,6.03
2022-10-11T00:44:32.976Z,8.27
2022-10-11T00:47:10.457Z,6.38
2022-10-11T00:49:50.470Z,5.95
2022-10-11T00:52:34.220Z,6.45
2022-10-11T00:55:11.763Z,4.50
2022-10-11T00:57:43.125Z,5.75
2022-10-11T01:00:13.738Z,4.00
2022-10-11T01:02:41.481Z,9.63
2022-10-11T01:05:29.254Z,8.10
2022-10-11T01:08:01.253Z,6.57
2022-10-11T01:10:29.034Z,4.80
2022-10-11T01:13:08.167Z,4.18
2022-10-11T01:15:48.760Z,10.57
2022-10-11T01:18:40.240Z,6.35
2022-10-11T01:21:26.378Z,6.68
2022-10-11T01:24:35.279Z,3.17
2022-10-11T01:27:40.097Z,8.50
2022-10-11T01:30:27.484Z,7.03
2022-10-11T01:33:15.715Z,4.38
2022-10-11T01:36:14.036Z,4.32
2022-10-11T01:38:50.638Z,7.82
2022-10-11T01:41:40.971Z,7.22
2022-10-11T01:44:09.327Z,6.80
2022-10-11T01:46:36.994Z,8.50
2022-10-11T01:49:05.142Z,6.47
2022-10-11T01:51:35.773Z,5.65
2022-10-11T01:54:09.020Z,7.25
2022-10-11T01:56:54.467Z,8.57
2022-10-11T01:59:28.558Z,7.85
2022-10-11T02:02:13.987Z,7.45
2022-10-11T02:04:47.309Z,7.07
2022-10-11T02:07:42.224Z,6.18
2022-10-11T02:10:34.561Z,6.93
2022-10-11T02:13:29.073Z,3.75
2022-10-11T02:15:59.182Z,4.60
2022-10-11T02:18:33.170Z,5.53
2022-10-11T02:21:05.036Z,7.80
2022-10-11T02:23:39.156Z,6.43
2022-10-11T02:26:08.853Z,5.82
2022-10-11T02:28:39.153Z,8.57
2022-10-11T02:31:07.732Z,6.93
2022-10-11T02:33:44.841Z,10.98
2022-10-11T02:36:24.702Z,6.57
2022-10-11T02:38:58.273Z,7.63
2022-10-11T02:41:38.620Z,4.15
2022-10-11T02:44:32.018Z,9.85
2022-10-11T02:47:01.209Z,6.55
2022-10-11T02:49:31.580Z,3.55
2022-10-11T02:51:59.466Z,6.70
2022-10-11T02:54:27.115Z,7.97
2022-10-11T02:56:54.298Z,11.80
2022-10-11T02:59:21.483Z,7.50
2022-10-11T03:01:48.790Z,4.20
2022-10-11T03:04:15.969Z,7.07
2022-10-11T03:06:43.130Z,5.80
2022-10-11T03:09:10.318Z,7.90
2022-10-11T03:11:37.387Z,6.82
2022-10-11T03:14:04.429Z,8.00
2022-10-11T03:16:31.466Z,6.43
2022-10-11T03:18:58.500Z,9.13
2022-10-11T03:21:25.652Z,6.43
2022-10-11T03:23:52.706Z,7.07
2022-10-11T03:26:19.806Z,4.28
2022-10-11T03:28:46.914Z,7.38
2022-10-11T03:31:14.132Z,5.95
2022-10-11T03:33:41.499Z,9.70
2022-10-11T03:36:09.185Z,8.10
2022-10-11T03:38:36.437Z,7.88
2022-10-11T03:41:03.584Z,10.00
2022-10-11T03:43:30.664Z,4.80
2022-10-11T03:45:57.777Z,11.30
2022-10-11T03:48:24.906Z,6.07
2022-10-11T03:50:52.080Z,7.93
2022-10-11T03:53:19.221Z,6.60
2022-10-11T03:55:46.374Z,6.78
2022-10-11T03:58:13.475Z,5.25
2022-10-11T04:00:40.579Z,9.55
2022-10-11T04:03:07.689Z,6.72
2022-10-11T04:05:34.805Z,5.95
2022-10-11T04:08:01.984Z,11.57
2022-10-11T04:10:31.049Z,7.07
2022-10-11T04:12:58.155Z,4.65
2022-10-11T04:15:25.284Z,8.55
2022-10-11T04:17:52.360Z,6.40
2022-10-11T04:20:19.519Z,5.50
2022-10-11T04:22:46.626Z,7.20
2022-10-11T04:25:13.800Z,7.90
2022-10-11T04:27:40.871Z,8.68
2022-10-11T04:30:08.737Z,10.15
2022-10-11T04:32:35.820Z,7.28
2022-10-11T04:35:04.553Z,8.48
2022-10-11T04:37:32.084Z,6.93
2022-10-11T04:39:59.472Z,6.22
2022-10-11T04:42:26.721Z,6.03
2022-10-11T04:44:53.821Z,5.93
2022-10-11T04:47:21.036Z,4.85
2022-10-11T04:49:48.210Z,4.63
2022-10-11T04:52:15.398Z,10.68
2022-10-11T04:54:42.508Z,7.32
2022-10-11T04:57:09.597Z,4.63
2022-10-11T04:59:36.697Z,7.68
2022-10-11T05:02:04.037Z,6.38
2022-10-11T05:04:31.137Z,6.65
2022-10-11T05:06:58.426Z,6.45
2022-10-11T05:09:25.544Z,6.32
2022-10-11T05:11:52.575Z,7.25
2022-10-11T05:14:19.764Z,6.82
2022-10-11T05:16:46.861Z,3.90
2022-10-11T05:19:14.078Z,4.22
2022-10-11T05:21:41.242Z,5.88
2022-10-11T05:24:08.395Z,6.15
2022-10-11T05:26:35.583Z,3.53
2022-10-11T05:29:03.184Z,7.97
2022-10-11T05:31:30.356Z,9.65
2022-10-11T05:33:57.524Z,6.93
2022-10-11T05:36:24.731Z,7.03
2022-10-11T05:38:51.981Z,8.48
2022-10-11T05:41:19.426Z,2.88
2022-10-11T05:43:46.606Z,6.35
2022-10-11T05:46:13.862Z,7.60
2022-10-11T05:48:41.236Z,8.43
2022-10-11T05:51:10.417Z,10.10
2022-10-11T05:53:38.467Z,5.53
2022-10-11T05:56:16.825Z,6.75
2022-10-11T05:58:43.924Z,6.70
2022-10-11T06:01:19.073Z,4.70
2022-10-11T06:03:46.306Z,7.55
2022-10-11T06:06:13.534Z,4.05
2022-10-11T06:08:40.729Z,5.05
2022-10-11T06:11:16.828Z,6.65
2022-10-11T06:13:44.431Z,7.57
2022-10-11T06:16:11.862Z,6.68
2022-10-11T06:18:39.033Z,6.35
2022-10-11T06:21:06.410Z,7.32
2022-10-11T06:23:33.489Z,4.47
2022-10-11T06:26:09.321Z,10.00
2022-10-11T06:28:37.267Z,8.70
2022-10-11T06:31:05.767Z,19.95
2022-10-11T06:33:33.328Z,6.47
2022-10-11T06:36:04.554Z,8.48
2022-10-11T06:38:33.215Z,9.82
2022-10-11T06:41:23.524Z,12.30
2022-10-11T06:43:51.152Z,8.45
2022-10-11T06:46:20.390Z,9.65
2022-10-11T06:48:50.686Z,7.20
2022-10-11T06:51:20.386Z,12.73
2022-10-11T06:53:56.810Z,4.03
2022-10-11T06:56:25.275Z,6.47
2022-10-11T06:58:53.652Z,9.50
2022-10-11T07:01:23.604Z,9.25
2022-10-11T07:03:55.413Z,9.50
2022-10-11T07:06:25.050Z,10.55
2022-10-11T07:08:52.331Z,7.15
2022-10-11T07:11:24.699Z,10.02
2022-10-11T07:13:54.101Z,13.48
2022-10-11T07:16:22.344Z,10.63
2022-10-11T07:18:58.796Z,7.40
2022-10-11T07:21:27.852Z,8.35
2022-10-11T07:23:55.019Z,13.27
2022-10-11T07:26:22.299Z,11.05
2022-10-11T07:28:49.515Z,10.50
2022-10-11T07:31:22.615Z,4.00
2022-10-11T07:33:49.821Z,12.30
2022-10-11T07:36:23.662Z,9.55
2022-10-11T07:38:51.785Z,8.82
2022-10-11T07:41:19.494Z,10.10
2022-10-11T07:43:49.844Z,12.40
2022-10-11T07:46:20.160Z,10.93
2022-10-11T07:48:47.374Z,8.23
2022-10-11T07:51:17.613Z,9.18
2022-10-11T07:53:50.537Z,10.30
2022-10-11T07:56:23.633Z,16.33
2022-10-11T07:58:52.715Z,8.20
2022-10-11T08:01:20.776Z,12.40
2022-10-11T08:03:48.675Z,8.18
2022-10-11T08:06:19.695Z,22.05
2022-10-11T08:08:46.965Z,11.60
2022-10-11T08:11:43.565Z,15.77
2022-10-11T08:14:11.555Z,13.35
2022-10-11T08:16:39.428Z,11.55
2022-10-11T08:19:07.357Z,14.38
2022-10-11T08:21:34.974Z,18.60
2022-10-11T08:24:03.675Z,12.25
2022-10-11T08:26:31.856Z,12.50
2022-10-11T08:29:03.408Z,15.88
2022-10-11T08:31:30.971Z,15.07
2022-10-11T08:33:58.293Z,12.73
2022-10-11T08:36:25.428Z,18.88
2022-10-11T08:38:52.520Z,16.20
2022-10-11T08:41:27.953Z,10.68
2022-10-11T08:44:12.051Z,17.90
2022-10-11T08:46:43.103Z,16.92
2022-10-11T08:49:13.407Z,14.38
2022-10-11T08:51:46.047Z,19.30
2022-10-11T08:54:20.586Z,12.93
2022-10-11T08:56:48.607Z,15.00
2022-10-11T08:59:23.701Z,17.40
2022-10-11T09:02:01.516Z,14.68
2022-10-11T09:04:29.011Z,16.77
2022-10-11T09:07:18.646Z,11.55
2022-10-11T09:10:25.350Z,11.68
2022-10-11T09:13:10.807Z,12.63
2022-10-11T09:16:01.138Z,11.45
2022-10-11T09:18:41.058Z,10.60
2022-10-11T09:21:33.057Z,10.00
2022-10-11T09:24:13.244Z,15.55
2022-10-11T09:26:50.332Z,16.85
2022-10-11T09:29:24.360Z,23.67
2022-10-11T09:31:57.251Z,16.48
2022-10-11T09:34:32.535Z,12.90
2022-10-11T09:37:27.262Z,19.80
2022-10-11T09:40:05.213Z,14.45
2022-10-11T09:42:32.333Z,12.60
2022-10-11T09:45:01.975Z,18.02
2022-10-11T09:47:33.022Z,14.88
2022-10-11T09:50:16.733Z,10.38
2022-10-11T09:52:56.372Z,17.30
2022-10-11T09:55:59.090Z,15.70
2022-10-11T09:58:36.195Z,13.93
2022-10-11T10:01:08.542Z,9.88
2022-10-11T10:03:41.675Z,15.77
2022-10-11T10:06:26.315Z,11.93
2022-10-11T10:08:53.460Z,14.27
2022-10-11T10:11:20.712Z,12.10
2022-10-11T10:13:53.489Z,13.32
2022-10-11T10:16:22.463Z,10.82
2022-10-11T10:18:52.765Z,10.45
2022-10-11T10:21:28.488Z,14.77
2022-10-11T10:23:57.582Z,9.73
2022-10-11T10:26:26.385Z,9.80
2022-10-11T10:29:08.407Z,10.10
2022-10-11T10:34:47.328Z,10.70
2022-10-11T10:37:27.467Z,8.93
2022-10-11T10:39:57.759Z,10.95
2022-10-11T10:42:24.926Z,16.40
2022-10-11T10:44:54.903Z,14.70
2022-10-11T10:47:44.110Z,17.08
2022-10-11T10:50:25.982Z,10.60
2022-10-11T10:52:59.211Z,12.27
2022-10-11T10:55:29.850Z,12.40
2022-10-11T10:58:39.866Z,15.23
2022-10-11T11:01:20.448Z,15.70
2022-10-11T11:03:52.086Z,11.68
2022-10-11T11:06:36.691Z,10.93
2022-10-11T11:09:24.197Z,13.52
2022-10-11T11:11:51.520Z,9.90
2022-10-11T11:14:49.462Z,7.20
2022-10-11T11:17:19.705Z,4.88
2022-10-11T11:20:08.835Z,10.10
2022-10-11T11:23:00.965Z,7.88
2022-10-11T11:25:49.412Z,7.03
2022-10-11T11:28:41.147Z,12.68
2022-10-11T11:31:11.108Z,10.70
2022-10-11T11:33:56.925Z,7.68
2022-10-11T11:36:46.968Z,4.38
2022-10-11T11:39:19.274Z,8.00
2022-10-11T11:44:30.960Z,11.93
2022-10-11T11:47:06.765Z,10.40
2022-10-11T11:49:46.719Z,6.55
2022-10-11T11:52:22.984Z,7.60
2022-10-11T11:55:05.715Z,5.80
2022-10-11T11:57:41.485Z,9.20
2022-10-11T12:00:20.703Z,5.97
2022-10-11T12:03:13.755Z,8.27
2022-10-11T12:06:16.012Z,4.63
2022-10-11T12:09:21.565Z,5.50
2022-10-11T12:11:58.620Z,8.40
2022-10-11T12:14:36.907Z,6.22
2022-10-11T12:17:13.712Z,12.65
2022-10-11T12:19:44.562Z,9.88
2022-10-11T12:22:26.946Z,7.18
2022-10-11T12:24:59.857Z,5.20
2022-10-11T12:27:40.792Z,12.10
2022-10-11T12:30:48.096Z,7.80
2022-10-11T12:33:25.287Z,6.32
2022-10-11T12:35:55.513Z,7.50
2022-10-11T12:38:34.451Z,12.73
2022-10-11T12:41:10.611Z,6.95
2022-10-11T12:43:49.707Z,6.63
2022-10-11T12:46:29.113Z,9.80
2022-10-11T12:48:58.895Z,6.68
2022-10-11T12:51:39.256Z,9.15
2022-10-11T12:54:37.515Z,8.48
2022-10-11T12:57:29.538Z,6.75
2022-10-11T13:00:28.965Z,8.73
2022-10-11T13:03:02.460Z,7.10
2022-10-11T13:05:44.932Z,7.32
2022-10-11T13:08:19.054Z,6.32
2022-10-11T13:10:47.747Z,3.10
2022-10-11T13:13:45.291Z,8.77
2022-10-11T13:16:19.026Z,7.40
2022-10-11T13:18:48.860Z,5.70
2022-10-11T13:21:39.455Z,6.30
2022-10-11T13:24:13.969Z,5.95
2022-10-11T13:26:41.703Z,6.07
2022-10-11T13:29:18.462Z,7.15
2022-10-11T13:31:47.377Z,7.13
2022-10-11T13:34:17.591Z,10.98
2022-10-11T13:36:46.947Z,8.57
2022-10-11T13:39:31.089Z,9.45
2022-10-11T13:42:00.206Z,8.18
2022-10-11T13:44:27.546Z,8.02
2022-10-11T13:46:54.881Z,9.93
2022-10-11T13:49:37.291Z,9.18
2022-10-11T13:52:20.429Z,7.63
2022-10-11T13:54:57.475Z,5.22
2022-10-11T13:57:48.402Z,6.93
2022-10-11T14:00:15.496Z,6.47
2022-10-11T14:03:07.867Z,6.15
2022-10-11T14:05:39.885Z,9.20
2022-10-11T14:08:27.291Z,10.20
2022-10-11T14:10:57.878Z,7.32
2022-10-11T14:13:37.556Z,4.28
2022-10-11T14:16:09.905Z,5.75
2022-10-11T14:21:19.565Z,5.43
2022-10-11T14:26:22.373Z,9.88
2022-10-11T14:29:00.613Z,9.52
2022-10-11T14:31:30.061Z,9.63
2022-10-11T14:33:57.845Z,8.18
2022-10-11T14:36:25.288Z,9.23
2022-10-11T14:38:53.207Z,6.47
2022-10-11T14:41:20.410Z,9.90
2022-10-11T14:43:47.579Z,9.88
2022-10-11T14:46:24.123Z,12.32
2022-10-11T14:48:56.521Z,8.93
2022-10-11T14:51:32.354Z,6.97
2022-10-11T14:53:59.443Z,9.65
2022-10-11T14:56:26.669Z,6.35
2022-10-11T14:58:53.780Z,12.32
2022-10-11T15:01:21.062Z,7.88
2022-10-11T15:03:48.205Z,8.70
2022-10-11T15:06:21.599Z,4.78
2022-10-11T15:08:49.169Z,8.55
2022-10-11T15:11:18.362Z,6.72
2022-10-11T15:13:45.673Z,4.53
2022-10-11T15:16:15.050Z,8.90
2022-10-11T15:18:44.191Z,9.35
2022-10-11T15:21:14.830Z,11.63
2022-10-11T15:23:41.898Z,9.57
2022-10-11T15:26:15.382Z,12.60
2022-10-11T15:28:43.383Z,9.10
2022-10-11T15:31:11.417Z,9.43
2022-10-11T15:33:39.897Z,9.00
2022-10-11T15:36:09.573Z,9.23
2022-10-11T15:38:41.497Z,5.35
2022-10-11T15:41:12.975Z,8.77
2022-10-11T15:43:40.661Z,5.87
2022-10-11T15:46:08.794Z,7.13
2022-10-11T15:48:38.334Z,5.70
2022-10-11T15:51:05.562Z,6.93
2022-10-11T15:53:32.749Z,6.25
2022-10-11T15:56:06.523Z,5.97
2022-10-11T15:58:39.947Z,5.50
2022-10-11T16:01:20.759Z,6.68
2022-10-11T16:03:49.504Z,5.28
2022-10-11T16:06:18.391Z,8.82
2022-10-11T16:08:45.634Z,3.75
2022-10-11T16:11:13.696Z,3.92
2022-10-11T16:13:41.168Z,3.17
2022-10-11T16:16:09.838Z,3.28
2022-10-11T16:18:37.625Z,5.15
2022-10-11T16:21:10.321Z,2.63
2022-10-11T16:23:38.262Z,4.90
2022-10-11T16:26:09.062Z,3.90
2022-10-11T16:28:37.686Z,4.82
2022-10-11T16:31:18.345Z,3.70
2022-10-11T16:33:46.257Z,3.10
2022-10-11T16:36:40.205Z,5.55
2022-10-11T16:39:14.218Z,7.40
2022-10-11T16:41:41.922Z,5.18
2022-10-11T16:44:16.352Z,3.65
2022-10-11T16:46:48.337Z,4.30
2022-10-11T16:49:22.037Z,6.53
2022-10-11T16:51:53.821Z,3.78
2022-10-11T16:54:21.943Z,5.65
2022-10-11T16:56:50.132Z,7.00
2022-10-11T16:59:17.644Z,5.53
2022-10-11T17:01:45.238Z,2.80
2022-10-11T17:04:13.648Z,5.10
2022-10-11T17:06:43.861Z,4.63
2022-10-11T17:09:11.482Z,3.05
2022-10-11T17:11:38.784Z,4.28
2022-10-11T17:14:07.254Z,4.30
2022-10-11T17:16:37.972Z,10.65
2022-10-11T17:19:05.392Z,8.52
2022-10-11T17:21:32.601Z,5.13
2022-10-11T17:23:59.704Z,7.60
2022-10-11T17:26:27.718Z,5.50
2022-10-11T17:28:56.572Z,7.30
2022-10-11T17:31:24.770Z,4.78
2022-10-11T17:33:53.260Z,14.20
2022-10-11T17:36:27.947Z,6.93
2022-10-11T17:38:57.078Z,11.45
2022-10-11T17:41:29.432Z,8.35
2022-10-11T17:43:59.740Z,6.07
2022-10-11T17:46:28.214Z,6.82
2022-10-11T17:48:55.728Z,12.75
2022-10-11T17:51:23.196Z,6.97
2022-10-11T17:53:51.215Z,6.40
2022-10-11T17:56:28.819Z,6.28
2022-10-11T17:58:58.701Z,7.55
2022-10-11T18:01:28.531Z,6.15
2022-10-11T18:04:02.022Z,7.75
2022-10-11T18:06:31.930Z,11.55
2022-10-11T18:09:03.462Z,7.40
2022-10-11T18:11:30.901Z,7.85
2022-10-11T18:13:58.033Z,9.98
2022-10-11T18:16:27.264Z,14.02
2022-10-11T18:18:56.739Z,11.68
2022-10-11T18:21:29.874Z,9.45
2022-10-11T18:24:08.339Z,13.48
2022-10-11T18:26:35.489Z,11.82
2022-10-11T18:29:02.773Z,10.45
2022-10-11T18:31:31.746Z,9.93
2022-10-11T18:33:58.847Z,13.32
2022-10-11T18:36:28.329Z,14.75
2022-10-11T18:38:58.571Z,13.60
2022-10-11T18:41:32.085Z,11.63
2022-10-11T18:44:05.134Z,11.25
2022-10-11T18:46:32.854Z,14.63
2022-10-11T18:49:03.465Z,16.33
2022-10-11T18:51:36.367Z,14.70
2022-10-11T18:54:04.592Z,18.50
2022-10-11T18:56:33.059Z,13.30
2022-10-11T18:59:01.009Z,14.32
2022-10-11T19:01:39.965Z,17.05
2022-10-11T19:04:09.704Z,10.63
2022-10-11T19:06:43.006Z,10.88
2022-10-11T19:09:30.826Z,9.85
2022-10-11T19:11:58.657Z,9.90
2022-10-11T19:14:28.814Z,10.05
2022-10-11T19:16:56.836Z,9.65
2022-10-11T19:19:26.869Z,11.77
2022-10-11T19:21:54.683Z,8.75
2022-10-11T19:24:25.081Z,11.35
2022-10-11T19:27:01.253Z,12.07
2022-10-11T19:29:30.485Z,13.63
2022-10-11T19:32:00.385Z,11.13
2022-10-11T19:34:28.743Z,10.82
2022-10-11T19:36:56.942Z,19.10
2022-10-11T19:39:25.517Z,18.40
2022-10-11T19:41:52.959Z,16.23
2022-10-11T19:44:20.592Z,21.55
2022-10-11T19:46:52.442Z,20.85
2022-10-11T19:49:23.959Z,25.45
2022-10-11T19:51:52.588Z,17.50
2022-10-11T19:54:20.012Z,20.05
2022-10-11T19:56:47.475Z,24.95
2022-10-11T19:59:15.722Z,23.48
2022-10-11T20:01:45.517Z,20.38
2022-10-11T20:07:02.305Z,17.65
2022-10-11T20:09:30.684Z,19.05
2022-10-11T20:11:58.810Z,12.40
2022-10-11T20:14:26.099Z,20.58
2022-10-11T20:16:53.308Z,17.58
2022-10-11T20:19:26.323Z,22.95
2022-10-11T20:22:00.407Z,15.00
2022-10-11T20:24:32.621Z,14.13
2022-10-11T20:27:02.549Z,19.65
2022-10-11T20:29:29.743Z,13.60
2022-10-11T20:31:56.902Z,12.88
2022-10-11T20:34:24.565Z,12.23
2022-10-11T20:36:52.298Z,14.55
2022-10-11T20:39:19.486Z,13.02
2022-10-11T20:41:46.663Z,11.40
2022-10-11T20:44:16.114Z,13.55
2022-10-11T20:46:43.397Z,11.32
2022-10-11T20:49:11.970Z,14.73
2022-10-11T20:51:41.901Z,14.10
2022-10-11T20:54:09.668Z,15.02
2022-10-11T20:56:37.761Z,17.05
2022-10-11T20:59:06.292Z,15.10
2022-10-11T21:01:37.221Z,15.93
2022-10-11T21:04:05.683Z,18.00
2022-10-11T21:06:33.829Z,19.58
2022-10-11T21:09:01.304Z,22.70
2022-10-11T21:11:31.181Z,16.63
2022-10-11T21:14:04.075Z,21.58
2022-10-11T21:16:32.380Z,12.60
2022-10-11T21:19:01.396Z,11.73
2022-10-11T21:21:29.608Z,12.68
2022-10-11T21:23:58.819Z,11.98
2022-10-11T21:26:26.293Z,13.52
2022-10-11T21:28:54.038Z,9.90
2022-10-11T21:31:22.751Z,10.98
2022-10-11T21:33:50.213Z,12.95
2022-10-11T21:36:20.184Z,11.27
2022-10-11T21:38:48.487Z,11.63
2022-10-11T21:41:25.463Z,10.48
2022-10-11T21:43:53.109Z,15.27
2022-10-11T21:46:41.769Z,7.63
2022-10-11T21:49:15.788Z,7.93
2022-10-11T21:51:42.975Z,13.45
2022-10-11T21:54:11.412Z,11.75
2022-10-11T21:56:38.583Z,11.65
2022-10-11T21:59:09.443Z,12.82
2022-10-11T22:01:46.713Z,10.57
2022-10-11T22:04:16.785Z,9.95
2022-10-11T22:06:44.439Z,8.30
2022-10-11T22:09:11.666Z,13.02
2022-10-11T22:11:38.949Z,9.23
2022-10-11T22:14:06.272Z,11.80
2022-10-11T22:16:35.257Z,9.85
2022-10-11T22:19:02.856Z,10.48
2022-10-11T22:21:31.546Z,11.77
2022-10-11T22:23:59.127Z,10.43
2022-10-11T22:26:32.397Z,8.57
2022-10-11T22:29:00.294Z,9.23
2022-10-11T22:31:28.037Z,10.25
2022-10-11T22:33:56.984Z,14.20
2022-10-11T22:36:24.393Z,8.85
2022-10-11T22:38:52.873Z,8.10
2022-10-11T22:41:26.888Z,10.63
2022-10-11T22:43:54.112Z,6.85
2022-10-11T22:46:21.211Z,5.85
2022-10-11T22:48:51.748Z,5.93
2022-10-11T22:51:19.399Z,8.85
2022-10-11T22:53:46.571Z,7.50
2022-10-11T22:56:13.737Z,7.13
2022-10-11T22:58:40.822Z,9.38
2022-10-11T23:01:13.959Z,11.00
2022-10-11T23:03:41.331Z,9.45
2022-10-11T23:06:09.118Z,9.43
2022-10-11T23:08:36.232Z,8.95
2022-10-11T23:11:05.582Z,7.97
2022-10-11T23:13:33.383Z,4.75
2022-10-11T23:16:09.649Z,8.18
2022-10-11T23:18:37.448Z,6.78
2022-10-11T23:21:05.447Z,8.27
2022-10-11T23:23:33.232Z,10.90
2022-10-11T23:26:09.222Z,7.57
2022-10-11T23:28:36.841Z,5.18
2022-10-11T23:31:13.106Z,6.22
2022-10-11T23:33:40.597Z,8.55
2022-10-11T23:36:21.081Z,11.32
2022-10-11T23:38:53.545Z,8.35
2022-10-11T23:41:21.863Z,8.63
2022-10-11T23:43:49.235Z,12.15
2022-10-11T23:46:16.662Z,10.45
2022-10-11T23:48:43.788Z,8.43
2022-10-11T23:51:11.154Z,14.27
2022-10-11T23:53:38.727Z,6.63
2022-10-11T23:56:06.649Z,11.45
2022-10-11T23:58:33.771Z,7.25
